Terminal Aerodrome Forecast
Issued by NWS

Home | Current Version | Previous Version | Text Only | Print | Product List | Glossary On
Versions: 1 2 3 4 5 6 7 8 9 10 11 12 13 14 15 16 17 18 19 20 21 22 23 24 25 26 27
000
FTAK31 PAFA 301130
TAFAFA
TAF
PAFA 301130Z 3012/0118 03004KT P6SM FEW050 FEW080 SCT110
     FM302000 05008KT P6SM VCSH SCT050 BKN100 BKN200
     FM010900 VRB04KT P6SM FEW050 SCT100=

USA.gov is the U.S. government's official web portal to all federal, state and local government web resources and services.